createdAt,value
2018-07-20T00:01:29.209Z,16.55
2018-07-20T00:03:56.316Z,16.33
2018-07-20T00:06:23.444Z,16.44
2018-07-20T00:08:50.517Z,16.19
2018-07-20T00:11:17.672Z,15.54
2018-07-20T00:13:44.761Z,15.36
2018-07-20T00:16:11.932Z,15.69
2018-07-20T00:18:39.100Z,15.99
2018-07-20T00:21:06.236Z,16.20
2018-07-20T00:23:33.373Z,16.28
2018-07-20T00:26:00.571Z,16.40
2018-07-20T00:28:27.678Z,16.31
2018-07-20T00:30:54.795Z,16.26
2018-07-20T00:33:21.880Z,15.90
2018-07-20T00:35:49.028Z,15.70
2018-07-20T00:38:16.161Z,15.73
2018-07-20T00:40:43.344Z,15.82
2018-07-20T00:43:10.435Z,15.92
2018-07-20T00:45:37.644Z,15.89
2018-07-20T00:48:04.780Z,15.54
2018-07-20T00:50:31.927Z,15.42
2018-07-20T00:52:59.068Z,15.73
2018-07-20T00:55:26.187Z,15.81
2018-07-20T00:57:53.267Z,15.93
2018-07-20T01:00:20.376Z,15.90
2018-07-20T01:02:47.480Z,15.74
2018-07-20T01:05:14.655Z,15.55
2018-07-20T01:07:41.839Z,15.79
2018-07-20T01:10:08.988Z,15.86
2018-07-20T01:12:36.111Z,15.84
2018-07-20T01:15:03.930Z,15.64
2018-07-20T01:17:31.060Z,15.36
2018-07-20T01:19:58.186Z,15.47
2018-07-20T01:22:25.304Z,15.49
2018-07-20T01:24:52.542Z,15.02
2018-07-20T01:27:19.709Z,14.41
2018-07-20T01:29:46.873Z,14.44
2018-07-20T01:32:13.992Z,14.81
2018-07-20T01:34:41.124Z,15.13
2018-07-20T01:37:08.270Z,15.30
2018-07-20T01:39:35.425Z,15.46
2018-07-20T01:42:02.549Z,15.57
2018-07-20T01:44:29.681Z,15.55
2018-07-20T01:46:56.797Z,15.18
2018-07-20T01:49:23.999Z,14.65
2018-07-20T01:51:51.155Z,14.24
2018-07-20T01:54:18.245Z,14.38
2018-07-20T01:56:45.364Z,14.78
2018-07-20T01:59:12.468Z,15.12
2018-07-20T02:01:39.623Z,15.02
2018-07-20T02:04:06.800Z,15.21
2018-07-20T02:06:33.940Z,14.93
2018-07-20T02:09:01.077Z,14.90
2018-07-20T02:11:28.225Z,14.75
2018-07-20T02:13:55.319Z,14.46
2018-07-20T02:16:22.448Z,14.75
2018-07-20T02:18:49.608Z,14.61
2018-07-20T02:21:16.760Z,14.19
2018-07-20T02:23:43.872Z,14.07
2018-07-20T02:26:11.020Z,13.95
2018-07-20T02:28:38.161Z,13.54
2018-07-20T02:31:05.748Z,14.20
2018-07-20T02:33:32.866Z,14.22
2018-07-20T02:35:59.940Z,13.94
2018-07-20T02:38:27.085Z,14.30
2018-07-20T02:40:54.226Z,14.16
2018-07-20T02:43:21.393Z,13.77
2018-07-20T02:45:48.587Z,13.71
2018-07-20T02:48:15.729Z,14.13
2018-07-20T02:50:42.936Z,14.07
2018-07-20T02:53:10.104Z,13.93
2018-07-20T02:55:37.231Z,14.23
2018-07-20T02:58:04.448Z,14.55
2018-07-20T03:00:31.581Z,14.59
2018-07-20T03:02:58.685Z,13.48
2018-07-20T03:05:25.813Z,13.92
2018-07-20T03:07:52.923Z,13.85
2018-07-20T03:10:20.088Z,13.84
2018-07-20T03:12:47.209Z,13.85
2018-07-20T03:15:14.357Z,13.52
2018-07-20T03:17:41.483Z,13.26
2018-07-20T03:20:08.636Z,13.42
2018-07-20T03:22:35.856Z,13.68
2018-07-20T03:25:03.816Z,13.77
2018-07-20T03:27:30.892Z,14.06
2018-07-20T03:29:58.020Z,14.04
2018-07-20T03:32:25.125Z,14.19
2018-07-20T03:34:52.345Z,13.86
2018-07-20T03:37:19.449Z,14.05
2018-07-20T03:39:46.622Z,14.08
2018-07-20T03:42:13.772Z,13.86
2018-07-20T03:44:40.913Z,13.37
2018-07-20T03:47:08.083Z,13.31
2018-07-20T03:49:35.189Z,13.37
2018-07-20T03:52:02.304Z,13.28
2018-07-20T03:54:29.412Z,12.85
2018-07-20T03:56:56.556Z,12.98
2018-07-20T03:59:23.669Z,12.76
2018-07-20T04:01:50.896Z,13.01
2018-07-20T04:04:17.988Z,12.96
2018-07-20T04:06:45.118Z,13.44
2018-07-20T04:09:12.219Z,13.64
2018-07-20T04:11:39.840Z,13.92
2018-07-20T04:14:07.493Z,14.06
2018-07-20T04:16:34.601Z,14.11
2018-07-20T04:19:01.729Z,14.19
2018-07-20T04:21:28.844Z,14.38
2018-07-20T04:23:55.976Z,14.47
2018-07-20T04:26:23.139Z,14.29
2018-07-20T04:28:50.292Z,14.12
2018-07-20T04:31:17.690Z,14.20
2018-07-20T04:33:44.800Z,14.16
2018-07-20T04:36:11.953Z,14.22
2018-07-20T04:38:39.059Z,14.05
2018-07-20T04:41:06.287Z,14.24
2018-07-20T04:43:33.384Z,14.20
2018-07-20T04:46:00.548Z,13.85
2018-07-20T04:48:27.672Z,13.90
2018-07-20T04:50:54.803Z,14.42
2018-07-20T04:53:21.938Z,14.62
2018-07-20T04:55:49.048Z,14.83
2018-07-20T04:58:16.191Z,15.17
2018-07-20T05:00:43.353Z,15.33
2018-07-20T05:03:10.492Z,15.40
2018-07-20T05:05:37.723Z,15.62
2018-07-20T05:08:05.144Z,15.92
2018-07-20T05:10:32.267Z,16.03
2018-07-20T05:12:59.406Z,16.09
2018-07-20T05:15:26.572Z,16.29
2018-07-20T05:17:53.704Z,16.30
2018-07-20T05:20:20.880Z,16.41
2018-07-20T05:22:48.053Z,16.61
2018-07-20T05:25:15.196Z,16.64
2018-07-20T05:27:42.300Z,16.68
2018-07-20T05:30:09.473Z,16.64
2018-07-20T05:32:36.678Z,16.87
2018-07-20T05:35:04.872Z,17.14
2018-07-20T05:37:31.988Z,17.26
2018-07-20T05:39:59.111Z,17.51
2018-07-20T05:42:26.323Z,17.54
2018-07-20T05:44:53.490Z,17.52
2018-07-20T05:47:20.643Z,17.36
2018-07-20T05:49:47.741Z,17.58
2018-07-20T05:52:14.917Z,17.52
2018-07-20T05:54:42.056Z,17.80
2018-07-20T05:57:09.269Z,18.04
2018-07-20T05:59:36.399Z,18.24
2018-07-20T06:02:03.652Z,18.37
2018-07-20T06:04:30.896Z,18.72
2018-07-20T06:06:58.019Z,18.89
2018-07-20T06:09:25.164Z,19.22
2018-07-20T06:11:52.320Z,19.43
2018-07-20T06:14:19.911Z,19.71
2018-07-20T06:16:47.004Z,20.07
2018-07-20T06:19:14.208Z,20.10
2018-07-20T06:21:41.399Z,20.43
2018-07-20T06:24:08.643Z,20.81
2018-07-20T06:26:42.605Z,21.10
2018-07-20T06:29:09.737Z,21.09
2018-07-20T06:31:36.892Z,21.32
2018-07-20T06:34:04.037Z,21.57
2018-07-20T06:36:31.128Z,21.34
2018-07-20T06:38:58.274Z,21.66
2018-07-20T06:41:25.504Z,21.44
2018-07-20T06:43:52.643Z,21.97
2018-07-20T06:46:19.800Z,22.23
2018-07-20T06:48:46.944Z,22.25
2018-07-20T06:51:14.100Z,22.46
2018-07-20T06:53:41.221Z,22.92
2018-07-20T06:56:08.365Z,22.82
2018-07-20T06:58:35.494Z,23.24
2018-07-20T07:01:02.620Z,23.39
2018-07-20T07:03:29.756Z,23.41
2018-07-20T07:05:56.917Z,23.46
2018-07-20T07:08:24.121Z,23.33
2018-07-20T07:10:51.279Z,23.68
2018-07-20T07:13:18.399Z,23.43
2018-07-20T07:15:45.548Z,23.67
2018-07-20T07:18:12.732Z,23.73
2018-07-20T07:20:39.857Z,23.79
2018-07-20T07:23:06.976Z,24.12
2018-07-20T07:25:34.070Z,24.20
2018-07-20T07:28:01.192Z,24.38
2018-07-20T07:30:28.316Z,24.58
2018-07-20T07:32:55.492Z,24.60
2018-07-20T07:35:22.653Z,24.60
2018-07-20T07:37:49.779Z,24.85
2018-07-20T07:40:16.929Z,24.64
2018-07-20T07:42:44.192Z,24.73
2018-07-20T07:45:11.348Z,24.62
2018-07-20T07:47:38.492Z,24.87
2018-07-20T07:50:05.693Z,24.92
2018-07-20T07:52:32.796Z,25.21
2018-07-20T07:54:59.940Z,25.64
2018-07-20T07:57:27.109Z,25.96
2018-07-20T07:59:54.236Z,25.89
2018-07-20T08:02:21.344Z,26.08
2018-07-20T08:04:48.491Z,26.08
2018-07-20T08:07:15.658Z,26.16
2018-07-20T08:09:42.862Z,26.15
2018-07-20T08:12:09.972Z,26.14
2018-07-20T08:14:37.137Z,26.06
2018-07-20T08:17:04.323Z,25.63
2018-07-20T08:19:31.481Z,26.22
2018-07-20T08:21:58.603Z,26.24
2018-07-20T08:24:25.857Z,26.60
2018-07-20T08:26:53.036Z,26.17
2018-07-20T08:29:20.844Z,25.99
2018-07-20T08:31:47.971Z,26.27
2018-07-20T08:34:15.127Z,26.58
2018-07-20T08:36:42.228Z,26.83
2018-07-20T08:39:10.135Z,26.69
2018-07-20T08:41:37.608Z,26.84
2018-07-20T08:44:04.768Z,26.75
2018-07-20T08:46:31.977Z,26.58
2018-07-20T08:48:59.089Z,26.74
2018-07-20T08:51:26.191Z,27.10
2018-07-20T08:53:53.416Z,27.10
2018-07-20T08:56:20.480Z,27.06
2018-07-20T08:58:48.016Z,27.48
2018-07-20T09:01:14.812Z,27.55
2018-07-20T09:03:42.049Z,27.24
2018-07-20T09:06:09.259Z,27.61
2018-07-20T09:08:36.393Z,27.78
2018-07-20T09:11:03.572Z,27.51
2018-07-20T09:13:30.755Z,27.43
2018-07-20T09:15:57.880Z,27.08
2018-07-20T09:18:25.003Z,27.51
2018-07-20T09:20:52.217Z,28.03
2018-07-20T09:23:19.343Z,28.18
2018-07-20T09:25:46.448Z,28.01
2018-07-20T09:28:14.449Z,28.14
2018-07-20T09:30:41.560Z,28.10
2018-07-20T09:33:08.712Z,27.39
2018-07-20T09:35:35.909Z,28.09
2018-07-20T09:38:03.031Z,28.19
2018-07-20T09:40:30.159Z,28.19
2018-07-20T09:42:57.295Z,28.52
2018-07-20T09:45:24.401Z,28.90
2018-07-20T09:47:51.535Z,29.30
2018-07-20T09:50:18.927Z,29.28
2018-07-20T09:52:46.064Z,28.91
2018-07-20T09:55:13.228Z,28.84
2018-07-20T09:57:40.384Z,29.49
2018-07-20T10:00:07.501Z,29.19
2018-07-20T10:02:34.640Z,28.84
2018-07-20T10:05:01.858Z,28.20
2018-07-20T10:07:28.983Z,28.20
2018-07-20T10:09:56.819Z,28.85
2018-07-20T10:12:23.975Z,29.20
2018-07-20T10:14:51.127Z,29.25
2018-07-20T10:17:18.228Z,29.04
2018-07-20T10:19:45.388Z,29.05
2018-07-20T10:22:12.513Z,29.37
2018-07-20T10:24:39.692Z,29.14
2018-07-20T10:27:06.892Z,29.25
2018-07-20T10:29:34.051Z,28.72
2018-07-20T10:32:01.177Z,29.13
2018-07-20T10:34:28.341Z,29.38
2018-07-20T10:36:55.448Z,28.94
2018-07-20T10:39:22.628Z,29.58
2018-07-20T10:41:50.164Z,30.03
2018-07-20T10:44:17.308Z,29.72
2018-07-20T10:46:44.552Z,29.18
2018-07-20T10:49:11.692Z,28.94
2018-07-20T10:51:38.845Z,29.93
2018-07-20T10:54:05.965Z,29.93
2018-07-20T10:56:33.130Z,30.27
2018-07-20T10:59:00.315Z,30.20
2018-07-20T11:01:27.478Z,29.44
2018-07-20T11:03:54.728Z,29.04
2018-07-20T11:06:21.879Z,28.29
2018-07-20T11:08:49.071Z,28.65
2018-07-20T11:11:16.242Z,29.01
2018-07-20T11:13:43.431Z,29.07
2018-07-20T11:16:10.564Z,29.17
2018-07-20T11:18:37.693Z,28.54
2018-07-20T11:21:04.861Z,28.46
2018-07-20T11:23:32.010Z,28.86
2018-07-20T11:25:59.192Z,28.82
2018-07-20T11:28:26.340Z,29.11
2018-07-20T11:30:53.532Z,28.97
2018-07-20T11:33:20.679Z,28.65
2018-07-20T11:35:47.823Z,28.43
2018-07-20T11:38:14.956Z,28.47
2018-07-20T11:40:42.104Z,28.69
2018-07-20T11:43:09.233Z,29.10
2018-07-20T11:45:36.411Z,28.92
2018-07-20T11:48:03.612Z,29.30
2018-07-20T11:50:30.743Z,29.72
2018-07-20T11:52:57.840Z,29.21
2018-07-20T11:55:24.993Z,29.85
2018-07-20T11:57:52.219Z,29.95
2018-07-20T12:00:19.388Z,30.09
2018-07-20T12:02:46.560Z,29.94
2018-07-20T12:05:13.747Z,29.91
2018-07-20T12:07:40.911Z,29.46
2018-07-20T12:10:08.287Z,29.46
2018-07-20T12:12:35.439Z,28.88
2018-07-20T12:15:02.615Z,28.67
2018-07-20T12:17:29.816Z,28.82
2018-07-20T12:19:56.955Z,28.82
2018-07-20T12:22:24.100Z,29.11
2018-07-20T12:24:51.253Z,29.44
2018-07-20T12:27:18.417Z,29.29
2018-07-20T12:29:45.713Z,30.03
2018-07-20T12:32:12.946Z,29.71
2018-07-20T12:34:40.152Z,29.70
2018-07-20T12:37:07.262Z,29.71
2018-07-20T12:39:34.520Z,29.94
2018-07-20T12:42:01.813Z,29.98
2018-07-20T12:44:28.999Z,29.24
2018-07-20T12:46:56.132Z,29.69
2018-07-20T12:49:23.336Z,30.41
2018-07-20T12:51:50.490Z,30.41
2018-07-20T12:54:17.640Z,30.65
2018-07-20T12:56:44.828Z,31.02
2018-07-20T12:59:11.970Z,31.25
2018-07-20T13:01:39.197Z,30.59
2018-07-20T13:04:06.390Z,30.17
2018-07-20T13:06:33.755Z,30.46
2018-07-20T13:09:00.973Z,30.73
2018-07-20T13:11:28.157Z,30.13
2018-07-20T13:13:55.342Z,31.08
2018-07-20T13:16:22.571Z,31.21
2018-07-20T13:18:49.816Z,30.50
2018-07-20T13:21:16.980Z,30.64
2018-07-20T13:23:44.116Z,30.74
2018-07-20T13:26:11.336Z,30.70
2018-07-20T13:28:38.518Z,31.36
2018-07-20T13:31:05.774Z,30.58
2018-07-20T13:33:32.988Z,30.70
2018-07-20T13:36:00.244Z,30.23
2018-07-20T13:38:27.507Z,30.19
2018-07-20T13:40:54.689Z,31.72
2018-07-20T13:43:21.882Z,31.00
2018-07-20T13:45:49.034Z,29.76
2018-07-20T13:48:19.028Z,30.90
2018-07-20T13:50:46.260Z,30.20
2018-07-20T13:53:13.381Z,30.79
2018-07-20T13:55:40.602Z,30.07
2018-07-20T13:58:07.782Z,29.46
2018-07-20T14:00:35.018Z,29.35
2018-07-20T14:03:02.228Z,29.39
2018-07-20T14:05:29.444Z,29.67
2018-07-20T14:07:56.597Z,30.89
2018-07-20T14:10:23.862Z,31.89
2018-07-20T14:12:51.054Z,31.29
2018-07-20T14:15:18.335Z,31.56
2018-07-20T14:17:45.560Z,31.41
2018-07-20T14:20:12.789Z,31.23
2018-07-20T14:22:40.084Z,32.24
2018-07-20T14:25:07.380Z,32.01
2018-07-20T14:27:34.563Z,30.92
2018-07-20T14:30:01.918Z,31.29
2018-07-20T14:32:29.105Z,32.02
2018-07-20T14:34:56.446Z,32.62
2018-07-20T14:37:23.640Z,32.33
2018-07-20T14:39:50.864Z,31.60
2018-07-20T14:42:18.059Z,31.35
2018-07-20T14:44:45.276Z,29.95
2018-07-20T14:47:12.445Z,29.93
2018-07-20T14:49:39.618Z,29.76
2018-07-20T14:52:06.826Z,29.90
2018-07-20T14:54:34.054Z,29.97
2018-07-20T14:57:01.241Z,29.92
2018-07-20T14:59:28.929Z,30.56
2018-07-20T15:01:56.111Z,31.04
2018-07-20T15:04:23.246Z,30.12
2018-07-20T15:06:50.406Z,31.57
2018-07-20T15:09:17.608Z,31.21
2018-07-20T15:11:44.805Z,30.08
2018-07-20T15:14:12.056Z,30.62
2018-07-20T15:16:39.242Z,30.84
2018-07-20T15:19:06.454Z,31.53
2018-07-20T15:21:33.701Z,32.00
2018-07-20T15:24:00.860Z,32.61
2018-07-20T15:26:28.093Z,33.18
2018-07-20T15:28:55.208Z,32.32
2018-07-20T15:31:22.416Z,32.73
2018-07-20T15:33:49.712Z,32.37
2018-07-20T15:36:16.937Z,30.99
2018-07-20T15:38:44.095Z,31.39
2018-07-20T15:41:11.244Z,30.72
2018-07-20T15:43:39.542Z,30.62
2018-07-20T15:46:06.770Z,30.41
2018-07-20T15:48:34.264Z,29.87
2018-07-20T15:51:01.442Z,30.00
2018-07-20T15:53:36.274Z,29.92
2018-07-20T15:55:55.914Z,30.24
2018-07-20T15:58:23.098Z,30.59
2018-07-20T16:00:50.344Z,30.94
2018-07-20T16:03:17.582Z,31.89
2018-07-20T16:05:44.844Z,31.92
2018-07-20T16:08:11.989Z,31.69
2018-07-20T16:10:39.426Z,30.91
2018-07-20T16:13:06.691Z,30.58
2018-07-20T16:15:33.914Z,30.60
2018-07-20T16:18:01.081Z,29.85
2018-07-20T16:20:28.307Z,29.95
2018-07-20T16:22:55.522Z,29.77
2018-07-20T16:25:22.678Z,29.38
2018-07-20T16:27:49.886Z,29.16
2018-07-20T16:30:17.081Z,29.39
2018-07-20T16:32:44.241Z,29.48
2018-07-20T16:35:11.442Z,29.66
2018-07-20T16:37:38.590Z,29.84
2018-07-20T16:40:05.753Z,29.39
2018-07-20T16:42:32.938Z,28.75
2018-07-20T16:45:00.116Z,29.20
2018-07-20T16:47:27.301Z,29.10
2018-07-20T16:52:34.139Z,29.19
2018-07-20T16:55:01.360Z,29.25
2018-07-20T16:57:28.542Z,29.27
2018-07-20T16:59:55.727Z,29.20
2018-07-20T17:02:22.930Z,28.88
2018-07-20T17:04:50.095Z,28.80
2018-07-20T17:07:17.249Z,28.93
2018-07-20T17:09:44.422Z,28.88
2018-07-20T17:12:11.576Z,28.82
2018-07-20T17:14:38.735Z,29.05
2018-07-20T17:17:05.908Z,29.12
2018-07-20T17:19:33.086Z,28.81
2018-07-20T17:22:00.329Z,29.05
2018-07-20T17:24:27.501Z,28.92
2018-07-20T17:26:54.700Z,28.77
2018-07-20T17:29:21.931Z,28.75
2018-07-20T17:31:49.152Z,28.58
2018-07-20T17:34:16.356Z,28.56
2018-07-20T17:36:43.584Z,28.69
2018-07-20T17:39:11.694Z,28.71
2018-07-20T17:41:38.870Z,28.50
2018-07-20T17:44:06.155Z,28.41
2018-07-20T17:46:33.366Z,28.46
2018-07-20T17:49:00.588Z,28.56
2018-07-20T17:51:27.783Z,28.62
2018-07-20T17:53:54.974Z,28.43
2018-07-20T17:56:22.237Z,28.37
2018-07-20T17:58:49.335Z,28.12
2018-07-20T18:01:16.535Z,28.05
2018-07-20T18:03:43.792Z,27.88
2018-07-20T18:06:11.051Z,27.70
2018-07-20T18:08:38.226Z,27.48
2018-07-20T18:11:05.462Z,27.44
2018-07-20T18:13:32.637Z,27.45
2018-07-20T18:15:59.861Z,27.51
2018-07-20T18:18:27.039Z,27.27
2018-07-20T18:20:54.221Z,27.20
2018-07-20T18:23:21.380Z,27.21
2018-07-20T18:25:48.609Z,27.18
2018-07-20T18:28:15.790Z,27.03
2018-07-20T18:30:42.993Z,26.87
2018-07-20T18:33:10.226Z,26.65
2018-07-20T18:35:38.014Z,26.51
2018-07-20T18:38:05.197Z,26.48
2018-07-20T18:40:32.416Z,26.39
2018-07-20T18:42:59.617Z,26.29
2018-07-20T18:45:26.786Z,26.28
2018-07-20T18:47:53.981Z,25.92
2018-07-20T18:50:21.172Z,26.04
2018-07-20T18:52:48.329Z,26.04
2018-07-20T18:55:15.494Z,25.61
2018-07-20T18:57:42.708Z,25.51
2018-07-20T19:00:09.891Z,25.64
2018-07-20T19:02:37.019Z,25.59
2018-07-20T19:05:05.177Z,25.60
2018-07-20T19:07:32.359Z,25.34
2018-07-20T19:09:59.962Z,25.03
2018-07-20T19:12:27.176Z,24.82
2018-07-20T19:14:54.481Z,24.71
2018-07-20T19:17:21.656Z,24.65
2018-07-20T19:19:48.813Z,24.58
2018-07-20T19:22:15.978Z,24.65
2018-07-20T19:24:43.109Z,24.51
2018-07-20T19:27:10.309Z,24.45
2018-07-20T19:29:37.500Z,24.41
2018-07-20T19:32:04.699Z,24.47
2018-07-20T19:34:31.879Z,24.45
2018-07-20T19:36:59.090Z,24.25
2018-07-20T19:39:26.338Z,24.20
2018-07-20T19:41:53.633Z,24.21
2018-07-20T19:44:20.768Z,24.25
2018-07-20T19:46:47.860Z,24.35
2018-07-20T19:49:15.021Z,23.83
2018-07-20T19:51:42.175Z,23.75
2018-07-20T19:54:09.351Z,23.36
2018-07-20T19:56:36.545Z,23.39
2018-07-20T19:59:03.807Z,23.69
2018-07-20T20:01:31.004Z,23.69
2018-07-20T20:03:58.156Z,23.61
2018-07-20T20:06:25.337Z,23.46
2018-07-20T20:08:52.597Z,23.11
2018-07-20T20:11:19.771Z,23.11
2018-07-20T20:13:47.009Z,23.33
2018-07-20T20:16:14.361Z,23.17
2018-07-20T20:18:41.633Z,22.87
2018-07-20T20:21:08.873Z,22.87
2018-07-20T20:23:37.848Z,22.97
2018-07-20T20:26:05.149Z,22.76
2018-07-20T20:28:32.569Z,22.93
2018-07-20T20:30:59.808Z,22.51
2018-07-20T20:33:26.958Z,23.09
2018-07-20T20:35:54.147Z,23.00
2018-07-20T20:38:21.354Z,22.68
2018-07-20T20:40:48.531Z,22.43
2018-07-20T20:43:15.692Z,22.58
2018-07-20T20:45:42.892Z,22.63
2018-07-20T20:48:10.061Z,22.34
2018-07-20T20:50:37.247Z,22.22
2018-07-20T20:53:04.652Z,22.27
2018-07-20T20:55:31.880Z,22.41
2018-07-20T20:57:59.064Z,22.49
2018-07-20T21:00:26.227Z,22.64
2018-07-20T21:02:53.383Z,22.62
2018-07-20T21:05:20.545Z,22.25
2018-07-20T21:07:47.667Z,22.29
2018-07-20T21:10:14.880Z,22.47
2018-07-20T21:12:42.084Z,22.32
2018-07-20T21:15:09.200Z,22.05
2018-07-20T21:17:36.352Z,21.54
2018-07-20T21:20:04.764Z,20.57
2018-07-20T21:22:31.940Z,20.87
2018-07-20T21:24:59.049Z,21.10
2018-07-20T21:27:26.185Z,21.35
2018-07-20T21:29:53.328Z,21.36
2018-07-20T21:32:20.523Z,21.36
2018-07-20T21:34:47.704Z,21.58
2018-07-20T21:37:14.851Z,21.77
2018-07-20T21:39:42.083Z,21.80
2018-07-20T21:42:09.208Z,21.94
2018-07-20T21:44:36.347Z,21.19
2018-07-20T21:47:03.489Z,20.62
2018-07-20T21:49:30.604Z,20.72
2018-07-20T21:51:58.019Z,20.52
2018-07-20T21:54:25.198Z,20.40
2018-07-20T21:56:52.372Z,20.26
2018-07-20T21:59:19.569Z,19.99
2018-07-20T22:01:46.752Z,19.97
2018-07-20T22:04:13.856Z,20.17
2018-07-20T22:06:41.001Z,20.56
2018-07-20T22:09:09.592Z,20.72
2018-07-20T22:11:36.803Z,20.57
2018-07-20T22:14:04.053Z,20.70
2018-07-20T22:16:31.177Z,20.56
2018-07-20T22:18:58.285Z,20.71
2018-07-20T22:21:25.450Z,20.33
2018-07-20T22:23:52.525Z,20.59
2018-07-20T22:26:19.683Z,20.78
2018-07-20T22:28:46.825Z,20.30
2018-07-20T22:31:13.964Z,19.90
2018-07-20T22:33:41.093Z,19.94
2018-07-20T22:36:08.272Z,20.13
2018-07-20T22:38:35.464Z,19.89
2018-07-20T22:41:02.618Z,19.92
2018-07-20T22:43:29.736Z,20.02
2018-07-20T22:45:56.928Z,20.02
2018-07-20T22:48:24.054Z,19.78
2018-07-20T22:50:51.221Z,20.28
2018-07-20T22:53:18.349Z,20.31
2018-07-20T22:55:45.493Z,20.35
2018-07-20T22:58:12.616Z,20.48
2018-07-20T23:00:39.779Z,20.33
2018-07-20T23:03:06.930Z,19.95
2018-07-20T23:05:34.117Z,19.99
2018-07-20T23:08:01.270Z,20.17
2018-07-20T23:10:28.464Z,20.13
2018-07-20T23:12:55.561Z,19.95
2018-07-20T23:15:22.700Z,19.69
2018-07-20T23:17:49.844Z,19.07
2018-07-20T23:20:16.990Z,19.16
2018-07-20T23:22:44.152Z,19.51
2018-07-20T23:27:37.914Z,19.77
2018-07-20T23:30:05.472Z,19.73
2018-07-20T23:32:32.671Z,19.68
2018-07-20T23:34:59.821Z,19.85
2018-07-20T23:37:27.000Z,19.76
2018-07-20T23:39:54.112Z,19.53
2018-07-20T23:42:21.264Z,19.41
2018-07-20T23:44:48.377Z,19.45
2018-07-20T23:47:15.512Z,19.36
2018-07-20T23:49:42.673Z,19.26
2018-07-20T23:52:09.835Z,19.37
2018-07-20T23:54:36.985Z,19.34
2018-07-20T23:57:04.136Z,19.26
2018-07-20T23:59:31.288Z,19.09
